Time;durP1;ratioP1;P1;durP2;ratioP2;P2;SDS_P1;SDS_P2;PMS_P1;PMS_P2;Temp;Humidity;BMP_temperature;BMP_pressure;BME280_temperature;BME280_humidity;BME280_pressure;Samples;Min_cycle;Max_cycle;Signal;HPM_P1;HPM_P2
2023/04/11 00:01:48;;;;;;;4.53;4.13;;;;;;;12.46;45.55;95932.81;4989942;28;20181;-69
2023/04/11 00:04:16;;;;;;;7.60;5.60;;;;;;;12.54;45.83;95936.78;4990455;28;20574;-69
2023/04/11 00:06:41;;;;;;;12.57;5.63;;;;;;;12.56;45.22;95930.47;4988509;28;20419;-69
2023/04/11 00:09:09;;;;;;;4.97;4.47;;;;;;;12.54;46.59;95929.72;4988197;28;20682;-69
2023/04/11 00:11:35;;;;;;;4.00;3.70;;;;;;;12.57;45.43;95923.44;5004460;28;20247;-69
2023/04/11 00:14:00;;;;;;;4.37;4.00;;;;;;;12.63;45.89;95913.38;4988589;28;20404;-69
2023/04/11 00:16:25;;;;;;;4.57;4.10;;;;;;;12.63;46.44;95916.00;4987996;28;20259;-69
2023/04/11 00:18:51;;;;;;;6.40;3.77;;;;;;;12.64;46.48;95906.34;4988807;28;20168;-69
2023/04/11 00:21:17;;;;;;;5.07;4.60;;;;;;;12.60;46.31;95915.38;4988685;28;20204;-71
2023/04/11 00:23:42;;;;;;;5.43;4.03;;;;;;;12.57;47.04;95918.19;4988569;28;20702;-69
2023/04/11 00:26:07;;;;;;;4.70;4.20;;;;;;;12.56;46.68;95916.47;4987318;28;20635;-69
2023/04/11 00:28:33;;;;;;;5.37;4.70;;;;;;;12.60;46.85;95912.72;4988247;28;20181;-69
2023/04/11 00:30:59;;;;;;;5.07;4.57;;;;;;;12.61;46.56;95906.50;5003173;28;20674;-69
2023/04/11 00:33:25;;;;;;;7.30;4.67;;;;;;;12.54;47.23;95899.91;4988337;28;20642;-69
2023/04/11 00:35:50;;;;;;;4.53;4.13;;;;;;;12.62;46.58;95900.31;4986728;28;20641;-69
2023/04/11 00:38:15;;;;;;;4.23;3.83;;;;;;;12.68;46.42;95889.41;4988081;28;20165;-69
2023/04/11 00:40:42;;;;;;;4.73;4.03;;;;;;;12.69;46.08;95883.22;4987540;28;20216;-69
2023/04/11 00:43:07;;;;;;;3.80;3.50;;;;;;;12.67;46.26;95872.78;4987903;28;20211;-69
2023/04/11 00:45:33;;;;;;;3.80;3.50;;;;;;;12.67;46.51;95864.03;4987928;28;20404;-69
2023/04/11 00:48:00;;;;;;;3.60;3.30;;;;;;;12.62;47.15;95861.69;4987528;28;20263;-69
2023/04/11 00:50:26;;;;;;;5.63;4.87;;;;;;;12.62;46.93;95851.16;4988207;28;20720;-70
2023/04/11 00:52:53;;;;;;;9.10;5.00;;;;;;;12.66;47.11;95846.53;4987915;28;20570;-70
2023/04/11 00:55:19;;;;;;;4.77;3.67;;;;;;;12.63;48.26;95836.19;4987566;28;20177;-70
2023/04/11 00:57:45;;;;;;;4.80;3.77;;;;;;;12.60;48.50;95837.22;4987035;28;20415;-69
2023/04/11 01:00:11;;;;;;;4.80;4.40;;;;;;;12.55;48.59;95812.97;4987671;28;20205;-69
2023/04/11 01:02:41;;;;;;;5.53;4.33;;;;;;;12.50;49.49;95815.06;4987991;28;20645;-69
2023/04/11 01:05:08;;;;;;;4.57;4.17;;;;;;;12.43;50.32;95800.56;4987491;28;20423;-70
2023/04/11 01:07:35;;;;;;;6.37;4.60;;;;;;;12.37;50.39;95799.16;4987234;28;20486;-70
2023/04/11 01:10:02;;;;;;;4.87;3.80;;;;;;;12.37;50.20;95811.47;4987214;28;20427;-70
2023/04/11 01:12:29;;;;;;;6.07;4.37;;;;;;;12.36;50.72;95813.25;4987715;28;20409;-70
2023/04/11 01:14:55;;;;;;;4.00;3.57;;;;;;;12.36;50.84;95815.88;4987600;28;20530;-70
2023/04/11 01:17:20;;;;;;;4.70;3.97;;;;;;;12.43;50.12;95817.22;4987073;28;20412;-70
2023/04/11 01:19:46;;;;;;;5.10;4.53;;;;;;;12.44;50.09;95810.16;4987711;28;20464;-70
2023/04/11 01:22:16;;;;;;;3.90;3.60;;;;;;;12.43;50.09;95798.78;4987807;28;20259;-70
2023/04/11 01:24:42;;;;;;;4.00;3.60;;;;;;;12.46;50.56;95805.66;4987147;28;20175;-70
2023/04/11 01:27:09;;;;;;;4.37;3.97;;;;;;;12.43;50.52;95798.78;4987006;28;20419;-70
2023/04/11 01:29:35;;;;;;;4.20;3.80;;;;;;;12.48;50.24;95803.78;4987405;28;20424;-69
2023/04/11 01:32:00;;;;;;;9.50;6.93;;;;;;;12.39;50.94;95813.06;4985840;28;20485;-70
2023/04/11 01:34:28;;;;;;;5.33;4.83;;;;;;;12.43;51.35;95803.22;4987390;28;20407;-69
2023/04/11 01:36:54;;;;;;;5.70;4.20;;;;;;;12.41;51.07;95805.94;4986885;28;20177;-70
2023/04/11 01:39:19;;;;;;;4.30;3.90;;;;;;;12.42;50.39;95804.97;4986703;28;20474;-70
2023/04/11 01:41:46;;;;;;;4.17;3.77;;;;;;;12.44;50.72;95808.34;4987392;28;20197;-69
2023/04/11 01:44:12;;;;;;;6.33;4.43;;;;;;;12.44;51.33;95818.03;4987494;28;20985;-70
2023/04/11 01:46:38;;;;;;;4.77;3.90;;;;;;;12.50;51.47;95820.31;4988347;28;20439;-69
2023/04/11 01:49:03;;;;;;;4.53;4.13;;;;;;;12.39;51.06;95802.53;4991019;28;20420;-69
2023/04/11 01:51:29;;;;;;;7.03;4.60;;;;;;;12.40;51.31;95803.38;4991380;28;20177;-69
2023/04/11 01:53:55;;;;;;;5.13;4.20;;;;;;;12.43;50.98;95796.16;4990662;28;20307;-69
2023/04/11 01:56:20;;;;;;;4.00;3.70;;;;;;;12.37;50.74;95799.16;4990113;28;20180;-69
2023/04/11 01:58:46;;;;;;;5.13;4.17;;;;;;;12.32;50.71;95795.94;4990843;28;20256;-69
2023/04/11 02:01:14;;;;;;;6.13;4.17;;;;;;;12.33;50.39;95794.16;4991209;28;20952;-69
2023/04/11 02:03:40;;;;;;;7.67;3.50;;;;;;;12.34;50.87;95809.03;4991165;28;20215;-69
2023/04/11 02:06:06;;;;;;;4.57;4.10;;;;;;;12.28;51.12;95810.22;4990471;28;20503;-69
2023/04/11 02:08:31;;;;;;;4.33;3.93;;;;;;;12.36;51.28;95792.22;4989724;28;20195;-69
2023/04/11 02:10:57;;;;;;;4.77;3.37;;;;;;;12.33;51.10;95789.78;4990400;28;20185;-69
2023/04/11 02:13:22;;;;;;;4.50;3.93;;;;;;;12.31;51.49;95781.13;4990889;28;20180;-69
2023/04/11 02:15:48;;;;;;;4.30;3.73;;;;;;;12.35;51.61;95793.13;4990187;28;20620;-69
2023/04/11 02:18:13;;;;;;;6.20;3.90;;;;;;;12.32;51.15;95788.06;4991027;28;20544;-69
2023/04/11 02:20:41;;;;;;;6.77;4.13;;;;;;;12.32;51.71;95795.13;4990620;28;20553;-69
2023/04/11 02:23:07;;;;;;;4.07;3.67;;;;;;;12.37;51.09;95787.78;4990895;28;20184;-69
2023/04/11 02:25:32;;;;;;;3.90;3.43;;;;;;;12.29;51.37;95788.25;4988486;28;20432;-70
2023/04/11 02:27:58;;;;;;;7.13;3.60;;;;;;;12.37;51.15;95778.09;4990220;28;20561;-69
2023/04/11 02:30:23;;;;;;;4.07;3.43;;;;;;;12.35;51.50;95782.59;4990357;28;20192;-69
2023/04/11 02:32:49;;;;;;;4.40;3.70;;;;;;;12.31;51.38;95777.63;4988619;28;20535;-69
2023/04/11 02:35:15;;;;;;;4.60;4.10;;;;;;;12.32;51.77;95779.31;4990690;28;20208;-69
2023/04/11 02:37:41;;;;;;;4.37;3.67;;;;;;;12.29;51.65;95769.84;4989707;28;20188;-69
2023/04/11 02:40:08;;;;;;;4.87;4.40;;;;;;;12.26;52.54;95775.28;4989534;28;20486;-68
2023/04/11 02:42:34;;;;;;;8.80;3.97;;;;;;;12.22;52.04;95760.63;4990620;28;20970;-68
2023/04/11 02:44:59;;;;;;;5.30;3.97;;;;;;;12.21;51.78;95761.56;4990096;28;20443;-68
2023/04/11 02:47:25;;;;;;;4.83;3.80;;;;;;;12.21;52.01;95767.69;4989251;28;20227;-68
2023/04/11 02:49:50;;;;;;;6.70;3.73;;;;;;;12.23;52.30;95781.56;4990051;28;20189;-68
2023/04/11 02:52:17;;;;;;;9.40;3.97;;;;;;;12.19;52.30;95766.94;4990451;28;20179;-68
2023/04/11 02:54:43;;;;;;;3.67;3.37;;;;;;;12.21;52.45;95756.28;4989805;28;20287;-69
2023/04/11 02:57:09;;;;;;;6.70;4.13;;;;;;;12.19;52.64;95747.66;4989104;28;20523;-69
2023/04/11 02:59:34;;;;;;;4.77;3.73;;;;;;;12.11;53.00;95739.38;4989182;28;20204;-68
2023/04/11 03:02:00;;;;;;;4.07;3.60;;;;;;;12.06;52.53;95750.19;4990419;28;20172;-68
2023/04/11 03:04:26;;;;;;;5.30;3.43;;;;;;;12.15;52.27;95751.41;4989845;28;20173;-69
2023/04/11 03:06:52;;;;;;;4.30;3.90;;;;;;;12.17;52.68;95750.38;4989483;28;20255;-68
2023/04/11 03:09:17;;;;;;;4.43;3.93;;;;;;;12.20;52.75;95750.19;4989113;28;20431;-68
2023/04/11 03:11:43;;;;;;;4.40;4.00;;;;;;;12.14;52.82;95761.09;4989820;28;20608;-69
2023/04/11 03:14:09;;;;;;;4.57;3.60;;;;;;;12.12;52.23;95757.72;4989397;28;20177;-68
2023/04/11 03:16:34;;;;;;;4.37;3.97;;;;;;;12.15;52.68;95760.16;4988905;28;20181;-69
2023/04/11 03:19:00;;;;;;;5.73;4.53;;;;;;;12.14;52.77;95749.72;4989119;28;20525;-68
2023/04/11 03:21:26;;;;;;;4.20;3.80;;;;;;;12.12;52.21;95743.69;4989600;28;20177;-69
2023/04/11 03:23:52;;;;;;;5.30;4.03;;;;;;;12.12;53.32;95754.22;4989598;28;20671;-68
2023/04/11 03:26:17;;;;;;;4.20;3.83;;;;;;;12.17;52.51;95750.38;4988105;28;20697;-69
2023/04/11 03:28:44;;;;;;;3.97;3.67;;;;;;;12.19;52.51;95751.16;4988947;28;20260;-69
2023/04/11 03:31:10;;;;;;;4.90;4.40;;;;;;;12.23;52.15;95746.53;4989204;28;20275;-67
2023/04/11 03:33:36;;;;;;;3.70;3.40;;;;;;;12.31;52.19;95740.78;4988985;28;20412;-67
2023/04/11 03:36:01;;;;;;;3.83;3.43;;;;;;;12.33;51.68;95731.88;4988240;28;20423;-66
2023/04/11 03:38:28;;;;;;;5.50;3.77;;;;;;;12.32;51.23;95740.69;4988911;28;20172;-67
2023/04/11 03:40:53;;;;;;;4.57;3.33;;;;;;;12.34;50.91;95732.72;4990468;28;20218;-66
2023/04/11 03:43:19;;;;;;;3.70;3.27;;;;;;;12.37;50.71;95741.25;4988950;28;20424;-66
2023/04/11 03:45:44;;;;;;;4.13;3.50;;;;;;;12.42;50.71;95741.81;4990728;28;20196;-66
2023/04/11 03:48:10;;;;;;;4.10;2.97;;;;;;;12.44;50.74;95742.56;4998051;28;20188;-69
2023/04/11 03:50:36;;;;;;;12.10;4.60;;;;;;;12.53;50.58;95749.06;4995926;28;20223;-68
2023/04/11 03:53:02;;;;;;;10.90;3.60;;;;;;;12.56;50.72;95758.56;4997433;28;20861;-68
2023/04/11 03:55:27;;;;;;;8.50;3.27;;;;;;;12.48;50.59;95757.25;4997477;28;20245;-68
2023/04/11 03:57:53;;;;;;;9.60;4.33;;;;;;;12.60;50.27;95771.44;5000635;28;20238;-68
2023/04/11 04:00:19;;;;;;;3.33;3.03;;;;;;;12.36;50.22;95794.84;4998325;28;20219;-67
2023/04/11 04:02:45;;;;;;;7.33;3.80;;;;;;;12.52;50.99;95801.78;4991387;28;20179;-67
2023/04/11 04:05:10;;;;;;;3.07;2.77;;;;;;;12.50;51.78;95805.38;4991827;28;20408;-68
2023/04/11 04:07:36;;;;;;;3.80;2.83;;;;;;;12.47;55.90;95795.03;4993956;28;20172;-67
2023/04/11 04:10:02;;;;;;;4.07;2.80;;;;;;;12.36;56.36;95792.22;4991354;28;20193;-67
2023/04/11 04:12:27;;;;;;;11.13;3.50;;;;;;;12.28;58.45;95789.19;4988407;28;20207;-67
2023/04/11 04:14:52;;;;;;;5.90;2.90;;;;;;;12.30;59.58;95792.56;4987970;28;20804;-67
2023/04/11 04:17:18;;;;;;;3.17;2.87;;;;;;;12.25;59.37;95806.00;4987395;28;20187;-67
2023/04/11 04:19:43;;;;;;;8.43;4.30;;;;;;;12.18;59.88;95803.84;4987531;28;20213;-67
2023/04/11 04:22:11;;;;;;;8.30;3.13;;;;;;;12.18;60.50;95804.66;4986390;28;20192;-67
2023/04/11 04:24:45;;;;;;;5.87;3.33;;;;;;;12.31;60.37;95804.81;4987402;28;20633;-67
2023/04/11 04:27:16;;;;;;;8.93;3.63;;;;;;;12.25;60.46;95800.72;4986970;28;20431;-66
2023/04/11 04:29:45;;;;;;;4.17;3.40;;;;;;;12.28;60.16;95800.56;4987618;28;20464;-66
2023/04/11 04:32:19;;;;;;;12.17;4.03;;;;;;;12.27;60.53;95798.03;4987519;28;20423;-67
2023/04/11 04:34:48;;;;;;;5.63;3.40;;;;;;;12.09;61.99;95807.84;4987417;28;20423;-67
2023/04/11 04:37:22;;;;;;;6.57;3.90;;;;;;;12.12;62.37;95836.63;4986938;28;20424;-67
2023/04/11 04:39:55;;;;;;;5.60;3.60;;;;;;;12.12;62.66;95841.88;4986788;28;20585;-67
2023/04/11 04:42:26;;;;;;;12.50;3.73;;;;;;;12.21;63.87;95846.59;4987982;28;20449;-67
2023/04/11 04:44:52;;;;;;;5.27;3.37;;;;;;;12.04;66.24;95839.69;4987513;28;20411;-67
2023/04/11 04:47:24;;;;;;;6.00;2.60;;;;;;;11.96;67.32;95855.06;4987198;28;20945;-67
2023/04/11 04:49:55;;;;;;;26.97;4.13;;;;;;;11.97;66.97;95826.97;4987642;28;20936;-67
2023/04/11 04:52:22;;;;;;;3.90;1.73;;;;;;;11.91;67.44;95824.72;4981737;28;21167;-67
2023/04/11 04:54:48;;;;;;;22.47;4.23;;;;;;;11.92;67.43;95824.63;4978830;28;20464;-67
2023/04/11 04:57:13;;;;;;;7.30;1.80;;;;;;;11.95;67.34;95813.94;4966800;28;20421;-67
2023/04/11 04:59:39;;;;;;;2.20;1.40;;;;;;;11.90;67.13;95804.63;4970541;28;20217;-67
2023/04/11 05:02:04;;;;;;;3.80;1.70;;;;;;;11.84;67.27;95797.91;4947894;28;20276;-67
2023/04/11 05:04:32;;;;;;;3.40;1.57;;;;;;;11.69;67.63;95799.63;4945736;29;20178;-67
2023/04/11 05:06:58;;;;;;;5.57;2.53;;;;;;;11.56;68.16;95793.41;4946875;28;20292;-67
2023/04/11 05:09:24;;;;;;;3.50;2.10;;;;;;;11.51;69.03;95783.16;4948712;28;20540;-67
2023/04/11 05:11:49;;;;;;;13.60;2.83;;;;;;;11.56;69.18;95796.88;4968633;28;20173;-67
2023/04/11 05:14:15;;;;;;;8.40;2.60;;;;;;;11.77;67.88;95807.94;4956131;28;20907;-68
2023/04/11 05:16:41;;;;;;;5.90;2.50;;;;;;;11.79;67.25;95799.97;4961302;28;20209;-67
2023/04/11 05:19:06;;;;;;;6.07;2.03;;;;;;;11.98;66.35;95803.25;4964353;28;20181;-67
2023/04/11 05:21:32;;;;;;;11.40;3.17;;;;;;;12.01;65.00;95796.94;4966408;28;20185;-67
2023/04/11 05:23:57;;;;;;;9.00;2.03;;;;;;;12.04;64.19;95810.75;4968260;28;20236;-67
2023/04/11 05:26:23;;;;;;;12.03;3.13;;;;;;;12.12;64.07;95815.56;4967589;28;20200;-68
2023/04/11 05:28:48;;;;;;;4.30;1.70;;;;;;;11.98;65.69;95816.38;4951980;28;20848;-67
2023/04/11 05:31:15;;;;;;;6.13;2.10;;;;;;;11.89;65.92;95830.06;4948626;29;20201;-67
2023/04/11 05:33:42;;;;;;;8.73;3.90;;;;;;;11.95;65.90;95844.63;4949052;28;20253;-67
2023/04/11 05:36:12;;;;;;;6.80;2.10;;;;;;;11.91;66.15;95853.66;4948268;28;20847;-67
2023/04/11 05:38:38;;;;;;;10.83;2.07;;;;;;;11.96;67.45;95862.97;4948993;28;20432;-67
2023/04/11 05:41:04;;;;;;;5.33;2.30;;;;;;;11.98;67.10;95873.41;4948596;28;20814;-67
2023/04/11 05:43:30;;;;;;;7.10;2.67;;;;;;;11.73;67.38;95887.91;4949386;28;20421;-68
2023/04/11 05:45:56;;;;;;;5.23;1.97;;;;;;;11.92;67.07;95882.47;4975130;28;20471;-68
2023/04/11 05:48:22;;;;;;;2.30;1.40;;;;;;;11.82;66.63;95904.94;4973777;28;20526;-68
2023/04/11 05:50:49;;;;;;;21.63;3.20;;;;;;;12.84;67.96;95918.31;4974144;28;20456;-68
2023/04/11 05:53:15;;;;;;;2.93;1.13;;;;;;;13.37;60.08;95918.59;4976703;28;20455;-69
2023/04/11 05:55:40;;;;;;;1.87;0.80;;;;;;;12.85;59.03;95914.72;4977713;28;20472;-68
2023/04/11 05:58:06;;;;;;;12.60;2.10;;;;;;;12.07;61.83;95923.69;4974357;28;20187;-67
2023/04/11 06:00:31;;;;;;;2.43;1.10;;;;;;;11.70;62.60;95934.56;4971543;28;20212;-68
2023/04/11 06:02:58;;;;;;;2.37;1.00;;;;;;;11.52;62.11;95925.91;4998503;28;20689;-68
2023/04/11 06:05:25;;;;;;;6.20;1.40;;;;;;;11.36;62.75;95924.13;4986357;28;20184;-68
2023/04/11 06:07:51;;;;;;;11.93;2.07;;;;;;;11.40;63.79;95927.41;4976423;28;20431;-68
2023/04/11 06:10:16;;;;;;;7.60;1.30;;;;;;;11.39;63.42;95923.94;4975265;28;20451;-68
2023/04/11 06:12:42;;;;;;;4.37;1.97;;;;;;;11.38;63.48;95911.72;4979752;28;20281;-67
2023/04/11 06:15:08;;;;;;;3.57;1.70;;;;;;;11.43;62.15;95919.34;4969249;28;20178;-68
2023/04/11 06:17:34;;;;;;;9.77;1.30;;;;;;;11.28;62.10;95905.28;4970411;28;20487;-69
2023/04/11 06:20:00;;;;;;;8.93;1.43;;;;;;;11.33;61.08;95919.03;4969662;28;20471;-68
2023/04/11 06:22:25;;;;;;;3.87;0.97;;;;;;;11.11;61.25;95929.00;4982371;28;20213;-68
2023/04/11 06:24:51;;;;;;;1.93;0.80;;;;;;;11.25;60.75;95931.72;4977821;28;20177;-68
2023/04/11 06:27:20;;;;;;;1.37;0.80;;;;;;;11.23;60.73;95946.72;4978301;28;20177;-67
2023/04/11 06:29:45;;;;;;;2.60;0.97;;;;;;;11.35;60.69;95939.97;4977106;28;20214;-68
2023/04/11 06:32:13;;;;;;;1.60;0.77;;;;;;;11.25;60.90;95938.78;4980421;28;20433;-68
2023/04/11 06:34:39;;;;;;;1.90;0.90;;;;;;;11.17;61.38;95947.03;4976037;28;20185;-68
2023/04/11 06:37:08;;;;;;;1.53;1.03;;;;;;;11.07;61.76;95951.94;4978875;28;20421;-67
2023/04/11 06:39:36;;;;;;;1.07;0.80;;;;;;;11.03;61.83;95945.16;4981105;28;20520;-68
2023/04/11 06:42:02;;;;;;;1.10;0.80;;;;;;;11.03;61.07;95960.91;4982939;28;20523;-69
2023/04/11 06:44:27;;;;;;;0.97;0.70;;;;;;;11.02;61.71;95964.47;4985024;28;20482;-69
2023/04/11 06:46:54;;;;;;;1.90;0.80;;;;;;;11.02;61.51;95965.31;4978678;28;20185;-69
2023/04/11 06:49:20;;;;;;;1.73;0.97;;;;;;;11.08;61.48;95981.66;4975283;28;20201;-69
2023/04/11 06:51:48;;;;;;;1.80;0.90;;;;;;;10.97;60.13;95977.00;4983078;28;20428;-69
2023/04/11 06:54:13;;;;;;;1.67;0.93;;;;;;;10.97;58.77;95984.88;4977450;28;20177;-68
2023/04/11 06:56:39;;;;;;;1.33;1.00;;;;;;;10.88;58.07;95970.44;4982243;28;20791;-67
2023/04/11 06:59:04;;;;;;;7.00;2.47;;;;;;;11.01;57.62;95989.03;4976252;28;20275;-68
2023/04/11 07:01:34;;;;;;;48.57;6.90;;;;;;;10.96;56.32;95985.78;4972153;28;20878;-69
2023/04/11 07:04:00;;;;;;;19.53;2.27;;;;;;;10.92;56.56;95989.50;4978071;28;20256;-69
2023/04/11 07:06:27;;;;;;;3.67;1.00;;;;;;;10.92;56.08;95990.34;4973801;28;20420;-67
2023/04/11 07:08:52;;;;;;;1.50;1.33;;;;;;;10.87;55.53;95981.88;4969822;28;20511;-69
2023/04/11 07:11:18;;;;;;;2.20;0.80;;;;;;;10.94;55.74;95992.91;4972167;28;20519;-69
2023/04/11 07:13:43;;;;;;;2.83;1.30;;;;;;;11.04;54.46;95991.50;4984270;28;20181;-70
2023/04/11 07:16:09;;;;;;;2.23;1.23;;;;;;;10.85;54.44;95981.09;4974533;28;20268;-69
2023/04/11 07:18:34;;;;;;;4.10;1.37;;;;;;;10.80;54.96;95981.34;4971201;28;20545;-69
2023/04/11 07:21:00;;;;;;;2.70;1.53;;;;;;;10.84;55.20;95968.88;4980543;28;20279;-67
2023/04/11 07:23:26;;;;;;;2.27;1.20;;;;;;;10.97;53.84;95980.47;4969376;28;20221;-69
2023/04/11 07:25:53;;;;;;;3.60;1.67;;;;;;;10.77;53.95;95983.25;4981177;28;20793;-68
2023/04/11 07:28:20;;;;;;;1.97;1.10;;;;;;;10.97;54.08;95996.22;4989143;28;20291;-69
2023/04/11 07:30:46;;;;;;;6.73;1.50;;;;;;;10.92;53.99;95998.22;4983338;28;20440;-68
2023/04/11 07:33:11;;;;;;;4.83;1.20;;;;;;;10.84;54.06;95992.50;4979788;28;20439;-69
2023/04/11 07:35:37;;;;;;;3.03;1.23;;;;;;;10.91;53.58;95987.78;4985142;28;20185;-69
2023/04/11 07:38:03;;;;;;;2.50;1.20;;;;;;;10.80;53.47;95993.63;4982741;28;20192;-69
2023/04/11 07:40:29;;;;;;;3.57;1.23;;;;;;;10.87;54.03;96002.03;4970933;28;20240;-67
2023/04/11 07:42:55;;;;;;;8.50;1.83;;;;;;;10.93;52.69;96004.31;4982658;28;20185;-68
2023/04/11 07:45:20;;;;;;;2.70;1.20;;;;;;;10.80;52.93;95999.72;4987954;28;20423;-68
2023/04/11 07:47:47;;;;;;;1.30;1.00;;;;;;;10.80;52.82;96010.22;4976403;28;20892;-68
2023/04/11 07:50:32;;;;;;;5.60;1.30;;;;;;;10.73;52.58;96007.97;4979964;28;20670;-68
2023/04/11 07:52:58;;;;;;;5.97;1.60;;;;;;;10.86;51.72;96005.56;4965510;28;20440;-69
2023/04/11 07:55:27;;;;;;;5.10;1.40;;;;;;;10.87;51.03;96037.00;4965104;28;20433;-70
2023/04/11 07:57:54;;;;;;;5.93;1.67;;;;;;;10.81;51.63;96046.00;4965024;28;20194;-69
2023/04/11 08:00:23;;;;;;;7.23;1.63;;;;;;;10.98;50.81;96045.19;4963427;28;20479;-69
2023/04/11 08:02:50;;;;;;;4.57;1.73;;;;;;;10.97;50.62;96026.88;4965666;28;20460;-69
2023/04/11 08:05:16;;;;;;;21.17;4.10;;;;;;;11.05;50.23;96013.34;4965219;28;20485;-69
2023/04/11 08:07:41;;;;;;;9.50;2.27;;;;;;;11.12;50.36;96038.34;4964117;28;20814;-68
2023/04/11 08:10:07;;;;;;;6.80;1.60;;;;;;;11.06;50.06;96038.69;4961619;28;20214;-68
2023/04/11 08:12:33;;;;;;;6.00;1.30;;;;;;;11.18;50.10;96043.31;4965368;28;20347;-68
2023/04/11 08:14:59;;;;;;;14.03;3.13;;;;;;;11.30;49.82;96041.81;4964989;28;20795;-68
2023/04/11 08:17:27;;;;;;;7.63;1.70;;;;;;;11.24;49.47;96053.47;4958391;28;20204;-68
2023/04/11 08:19:56;;;;;;;23.57;3.43;;;;;;;11.29;49.86;96034.84;4964901;28;20990;-68
2023/04/11 08:22:22;;;;;;;15.33;3.10;;;;;;;11.56;49.41;96038.63;4964700;28;20416;-69
2023/04/11 08:24:47;;;;;;;7.67;2.03;;;;;;;11.61;49.06;96051.53;4964023;28;20424;-68
2023/04/11 08:27:12;;;;;;;8.97;1.87;;;;;;;11.36;50.06;96044.09;4963800;28;21117;-68
2023/04/11 08:29:38;;;;;;;7.80;2.60;;;;;;;11.34;50.22;96053.84;4964854;28;20296;-69
2023/04/11 08:32:04;;;;;;;10.30;2.13;;;;;;;11.49;50.11;96063.56;4983134;28;20177;-68
2023/04/11 08:34:32;;;;;;;6.10;2.20;;;;;;;11.74;49.31;96065.72;4986525;28;20227;-68
2023/04/11 08:36:58;;;;;;;8.83;1.77;;;;;;;11.77;49.67;96091.00;4985914;28;20169;-67
2023/04/11 08:39:23;;;;;;;7.07;1.80;;;;;;;11.70;49.66;96079.13;4985861;28;20455;-67
2023/04/11 08:41:49;;;;;;;23.00;4.10;;;;;;;11.82;49.71;96070.56;5001478;28;20184;-68
2023/04/11 08:44:15;;;;;;;9.73;2.80;;;;;;;12.14;48.73;96071.47;4976712;28;20182;-68
2023/04/11 08:46:41;;;;;;;19.37;3.43;;;;;;;12.16;48.62;96082.75;4973153;28;20181;-67
2023/04/11 08:49:07;;;;;;;14.40;2.87;;;;;;;11.94;49.55;96084.88;4977178;28;20292;-68
2023/04/11 08:51:35;;;;;;;15.63;3.10;;;;;;;12.14;48.30;96081.13;4971027;28;20425;-67
2023/04/11 08:54:04;;;;;;;6.87;1.93;;;;;;;11.81;48.35;96095.13;4968931;28;20245;-68
2023/04/11 08:56:30;;;;;;;5.00;1.50;;;;;;;11.75;49.40;96085.81;4984283;28;21126;-68
2023/04/11 08:58:56;;;;;;;5.80;2.60;;;;;;;11.81;48.74;96095.13;4986253;28;20787;-68
2023/04/11 09:01:32;;;;;;;14.13;2.43;;;;;;;11.91;47.68;96090.28;4986310;28;20462;-69
2023/04/11 09:04:03;;;;;;;7.93;2.83;;;;;;;11.72;48.29;96077.25;4985710;28;21294;-68
2023/04/11 09:06:31;;;;;;;7.70;2.90;;;;;;;11.60;48.17;96073.50;4981371;28;20191;-68
2023/04/11 09:09:07;;;;;;;18.87;2.80;;;;;;;11.66;47.97;96071.38;4985984;28;20485;-68
2023/04/11 09:11:53;;;;;;;24.93;3.23;;;;;;;11.75;48.02;96070.03;4981084;28;20519;-68
2023/04/11 09:14:23;;;;;;;6.43;2.60;;;;;;;11.76;47.77;96052.47;4986545;28;20427;-68
2023/04/11 09:16:57;;;;;;;8.63;1.90;;;;;;;11.45;47.80;96068.09;4985353;28;20416;-70
2023/04/11 09:19:27;;;;;;;14.17;3.13;;;;;;;11.55;46.42;96068.50;4966516;28;20436;-69
2023/04/11 09:21:55;;;;;;;13.13;3.53;;;;;;;11.66;47.44;96081.88;4967185;28;20453;-68
2023/04/11 09:24:21;;;;;;;10.63;2.40;;;;;;;11.74;47.28;96071.00;4966300;28;21140;-68
2023/04/11 09:26:47;;;;;;;5.73;2.40;;;;;;;11.73;47.14;96082.41;4980214;28;20425;-68
2023/04/11 09:29:34;;;;;;;15.40;2.70;;;;;;;11.62;46.97;96080.38;4967073;28;20417;-68
2023/04/11 09:31:59;;;;;;;6.67;2.17;;;;;;;11.63;46.12;96084.69;4985471;28;20177;-68
2023/04/11 09:34:28;;;;;;;4.03;2.30;;;;;;;11.72;46.18;96067.59;4986637;28;20416;-69
2023/04/11 09:36:55;;;;;;;6.80;2.10;;;;;;;11.84;46.13;96084.47;4985932;28;20212;-68
2023/04/11 09:39:20;;;;;;;22.57;3.67;;;;;;;11.76;46.83;96084.03;4985993;28;20436;-69
2023/04/11 09:41:46;;;;;;;9.23;2.37;;;;;;;11.87;46.16;96094.84;4985490;28;20440;-68
2023/04/11 09:44:12;;;;;;;8.27;3.10;;;;;;;12.06;46.28;96084.19;4986589;28;20185;-68
2023/04/11 09:46:57;;;;;;;8.20;2.20;;;;;;;12.10;46.30;96087.50;4986152;28;20173;-68
2023/04/11 09:49:23;;;;;;;10.50;2.10;;;;;;;12.28;45.36;96091.72;4986559;28;20207;-70
2023/04/11 09:51:51;;;;;;;7.00;2.13;;;;;;;12.26;44.96;96085.72;4986765;28;20861;-67
2023/04/11 09:54:19;;;;;;;9.93;2.50;;;;;;;12.34;45.28;96086.13;4982161;28;20432;-69
2023/04/11 09:56:45;;;;;;;11.53;2.17;;;;;;;12.39;44.34;96085.88;4977861;28;20433;-68
2023/04/11 09:59:13;;;;;;;5.30;2.00;;;;;;;12.46;44.15;96081.97;4973966;28;20434;-69
2023/04/11 10:01:40;;;;;;;5.07;2.00;;;;;;;12.64;43.87;96082.72;4982370;28;20173;-68
2023/04/11 10:04:05;;;;;;;9.30;2.30;;;;;;;12.60;43.60;96091.72;4972694;28;20889;-67
2023/04/11 10:06:45;;;;;;;14.43;2.63;;;;;;;12.87;41.85;96089.28;4973705;28;20460;-67
2023/04/11 10:09:12;;;;;;;8.57;2.30;;;;;;;12.82;41.75;96092.19;4981061;28;20489;-68
2023/04/11 10:11:44;;;;;;;26.53;4.93;;;;;;;13.00;40.52;96087.63;4971486;28;21056;-68
2023/04/11 10:14:37;;;;;;;35.90;4.83;;;;;;;13.21;41.07;96092.59;4969619;28;20444;-68
2023/04/11 10:17:17;;;;;;;11.47;2.60;;;;;;;13.12;40.66;96091.34;4969888;28;20420;-68
2023/04/11 10:19:43;;;;;;;3.77;1.73;;;;;;;13.17;41.42;96088.44;4969756;28;20475;-68
2023/04/11 10:22:10;;;;;;;4.53;1.90;;;;;;;13.40;40.46;96105.56;4977417;28;21268;-68
2023/04/11 10:24:35;;;;;;;5.20;3.17;;;;;;;13.39;39.40;96096.78;4972307;28;20748;-68
2023/04/11 10:27:04;;;;;;;25.87;4.23;;;;;;;13.52;38.89;96089.84;4977484;28;20523;-67
2023/04/11 10:32:20;;;;;;;4.20;1.50;;;;;;;13.35;40.10;96082.09;4979396;28;20534;-67
2023/04/11 10:34:52;;;;;;;9.00;2.53;;;;;;;13.61;40.05;96092.88;4980858;28;20438;-67
2023/04/11 10:37:29;;;;;;;4.83;2.10;;;;;;;13.59;40.07;96086.84;4983856;28;20191;-67
2023/04/11 10:40:00;;;;;;;8.33;3.60;;;;;;;13.72;39.06;96111.50;4970559;28;20472;-67
2023/04/11 10:42:30;;;;;;;7.00;2.87;;;;;;;13.47;38.70;96091.91;4971303;28;20798;-67
2023/04/11 10:45:17;;;;;;;5.93;1.97;;;;;;;13.44;38.89;96102.63;4983495;28;20416;-67
2023/04/11 10:47:55;;;;;;;4.60;1.90;;;;;;;13.47;39.65;96086.63;4971375;28;20409;-66
2023/04/11 10:50:30;;;;;;;7.40;1.47;;;;;;;13.33;38.72;96091.88;4972162;28;20450;-67
2023/04/11 10:52:59;;;;;;;7.83;2.40;;;;;;;13.21;39.46;96096.06;4983657;28;20811;-67
2023/04/11 10:55:26;;;;;;;4.30;1.57;;;;;;;13.05;40.18;96090.00;4968180;28;20516;-67
2023/04/11 10:58:12;;;;;;;3.93;2.20;;;;;;;13.12;40.22;96107.97;4970673;28;20435;-68
2023/04/11 11:03:24;;;;;;;5.60;2.30;;;;;;;12.89;40.00;96093.50;4977062;28;20420;-68
2023/04/11 11:06:06;;;;;;;8.17;2.40;;;;;;;13.09;40.14;96086.25;4986673;28;20416;-67
2023/04/11 11:08:40;;;;;;;4.00;2.07;;;;;;;12.99;39.98;96085.94;4986610;28;20435;-67
2023/04/11 11:11:07;;;;;;;2.23;1.43;;;;;;;12.96;39.99;96080.84;4972585;28;20875;-67
2023/04/11 11:13:46;;;;;;;7.43;1.90;;;;;;;13.10;40.02;96095.84;4972252;28;20504;-67
2023/04/11 11:16:18;;;;;;;9.43;2.40;;;;;;;13.16;40.24;96098.13;4972626;28;20532;-67
2023/04/11 11:18:45;;;;;;;39.83;4.57;;;;;;;13.27;40.61;96106.25;4978521;28;20432;-67
2023/04/11 11:21:13;;;;;;;4.90;2.60;;;;;;;13.34;40.44;96098.84;4977153;28;20460;-67
2023/04/11 11:23:39;;;;;;;10.70;2.78;;;;;;;13.25;40.47;96102.84;4971387;28;20426;-67
2023/04/11 11:26:05;;;;;;;23.10;5.17;;;;;;;13.10;40.58;96104.59;4969550;28;20177;-68
2023/04/11 11:28:30;;;;;;;24.43;4.37;;;;;;;13.11;40.88;96095.75;4988016;28;20181;-67
2023/04/11 11:30:56;;;;;;;4.93;2.30;;;;;;;13.10;41.05;96098.47;4973154;28;20224;-67
2023/04/11 11:33:25;;;;;;;11.33;2.40;;;;;;;13.16;41.32;96111.31;4970364;28;20201;-68
2023/04/11 11:35:52;;;;;;;5.93;1.90;;;;;;;13.12;40.97;96112.41;4977553;28;20515;-67
2023/04/11 11:38:20;;;;;;;3.80;2.00;;;;;;;13.10;40.53;96114.28;4970725;28;20413;-67